Time;durP1;ratioP1;P1;durP2;ratioP2;P2;SDS_P1;SDS_P2;PMS_P1;PMS_P2;Temp;Humidity;BMP_temperature;BMP_pressure;BME280_temperature;BME280_humidity;BME280_pressure;Samples;Min_cycle;Max_cycle;Signal;HPM_P1;HPM_P2
2021/12/21 00:01:14;;;;;;;18.60;8.30;;;;;;;;;;5064639;28;20083;-63
2021/12/21 00:03:41;;;;;;;20.80;8.13;;;;;;;;;;5063631;28;20560;-62
2021/12/21 00:06:07;;;;;;;18.67;8.88;;;;;;;;;;5063830;28;20533;-61
2021/12/21 00:08:34;;;;;;;19.98;9.18;;;;;;;;;;5064508;28;20476;-62
2021/12/21 00:11:12;;;;;;;;;;;;;;;;;;5064566;28;20083;-62
2021/12/21 00:16:18;;;;;;;20.67;8.45;;;;;;;;;;5063451;28;20051;-62
2021/12/21 00:19:04;;;;;;;18.45;7.72;;;;;;;;;;5064425;28;20052;-62
2021/12/21 00:21:41;;;;;;;19.75;8.90;;;;;;;;;;5051175;28;20044;-62
2021/12/21 00:24:19;;;;;;;22.92;9.07;;;;;;;;;;5065309;28;20373;-62
2021/12/21 00:26:45;;;;;;;23.70;8.60;;;;;;;;;;5064871;28;20052;-60
2021/12/21 00:29:12;;;;;;;19.30;8.45;;;;;;;;;;5064468;28;20052;-62
2021/12/21 00:31:39;;;;;;;18.63;8.63;;;;;;;;;;5062889;28;20048;-62
2021/12/21 00:34:07;;;;;;;21.92;8.95;;;;;;;;;;5064719;28;20059;-60
2021/12/21 00:36:34;;;;;;;19.63;8.07;;;;;;;;;;5064826;28;20048;-61
2021/12/21 00:39:05;;;;;;;20.73;9.63;;;;;;;;;;5063647;28;20050;-60
2021/12/21 00:41:32;;;;;;;28.42;9.98;;;;;;;;;;5063758;28;20697;-62
2021/12/21 00:43:59;;;;;;;23.65;9.32;;;;;;;;;;5063860;28;20311;-61
2021/12/21 00:46:25;;;;;;;14.98;8.82;;;;;;;;;;5064401;28;20707;-62
2021/12/21 00:48:55;;;;;;;12.23;7.82;;;;;;;;;;5063465;28;20048;-60
2021/12/21 00:51:25;;;;;;;19.73;9.00;;;;;;;;;;5063622;28;20048;-61
2021/12/21 00:53:52;;;;;;;22.05;8.95;;;;;;;;;;5062698;28;20228;-61
2021/12/21 00:56:18;;;;;;;20.25;9.57;;;;;;;;;;5064239;28;20048;-61
2021/12/21 00:58:45;;;;;;;19.00;8.55;;;;;;;;;;5063619;28;20044;-61
2021/12/21 01:01:11;;;;;;;21.67;8.82;;;;;;;;;;5064085;28;20127;-61
2021/12/21 01:03:42;;;;;;;15.32;8.07;;;;;;;;;;5064701;28;20061;-61
2021/12/21 01:06:25;;;;;;;16.73;8.07;;;;;;;;;;5063884;28;20102;-61
2021/12/21 01:11:27;;;;;;;17.33;8.43;;;;;;;;;;5066100;28;20698;-61
2021/12/21 01:16:36;;;;;;;17.60;8.85;;;;;;;;;;5066424;28;20051;-61
2021/12/21 01:19:12;;;;;;;17.52;8.65;;;;;;;;;;5065344;28;20066;-61
2021/12/21 01:22:06;;;;;;;16.95;8.52;;;;;;;;;;5057352;28;20045;-61
2021/12/21 01:24:50;;;;;;;15.60;7.93;;;;;;;;;;5045387;28;20144;-60
2021/12/21 01:27:22;;;;;;;22.90;8.80;;;;;;;;;;5045990;28;20128;-61
2021/12/21 01:33:02;;;;;;;24.60;9.65;;;;;;;;;;5011417;28;20702;-61
2021/12/21 01:35:37;;;;;;;17.42;7.90;;;;;;;;;;5045939;28;20048;-61
2021/12/21 01:38:15;;;;;;;18.15;7.80;;;;;;;;;;5045150;28;20132;-61
2021/12/21 01:40:51;;;;;;;18.58;8.75;;;;;;;;;;5045060;28;20051;-61
2021/12/21 01:51:23;;;;;;;21.00;8.38;;;;;;;;;;5058631;28;20056;-61
2021/12/21 01:53:50;;;;;;;14.52;7.63;;;;;;;;;;5064838;28;20049;-61
2021/12/21 01:56:17;;;;;;;15.25;8.10;;;;;;;;;;5065505;28;20614;-61
2021/12/21 01:58:44;;;;;;;18.65;8.65;;;;;;;;;;5065017;28;20047;-61
2021/12/21 02:01:12;;;;;;;19.40;8.57;;;;;;;;;;5065079;28;20499;-61
2021/12/21 02:03:39;;;;;;;16.40;9.07;;;;;;;;;;5064804;28;20060;-61
2021/12/21 02:06:06;;;;;;;21.20;8.57;;;;;;;;;;5065046;28;20065;-60
2021/12/21 02:08:32;;;;;;;17.27;8.23;;;;;;;;;;5065289;28;20087;-61
2021/12/21 02:11:03;;;;;;;22.50;9.10;;;;;;;;;;5064800;28;20052;-61
2021/12/21 02:13:33;;;;;;;18.10;8.75;;;;;;;;;;5064776;28;20059;-60
2021/12/21 02:16:00;;;;;;;15.90;7.35;;;;;;;;;;5064916;28;20129;-61
2021/12/21 02:18:34;;;;;;;22.80;8.95;;;;;;;;;;5047600;28;20541;-61
2021/12/21 02:21:16;;;;;;;16.60;8.88;;;;;;;;;;5064825;28;20612;-60
2021/12/21 02:23:43;;;;;;;20.58;7.82;;;;;;;;;;5056303;28;20131;-61
2021/12/21 02:26:22;;;;;;;17.52;8.88;;;;;;;;;;5066598;28;20071;-61
2021/12/21 02:29:10;;;;;;;19.27;9.25;;;;;;;;;;5071492;28;20128;-60
2021/12/21 02:31:37;;;;;;;19.20;8.63;;;;;;;;;;5065225;28;20050;-61
2021/12/21 02:34:05;;;;;;;14.60;8.50;;;;;;;;;;5064732;28;20099;-61
2021/12/21 02:36:31;;;;;;;20.13;8.27;;;;;;;;;;5060128;28;20122;-61
2021/12/21 02:38:58;;;;;;;16.65;8.25;;;;;;;;;;5062668;28;20528;-61
2021/12/21 02:41:25;;;;;;;19.70;8.13;;;;;;;;;;5065134;28;20160;-60
2021/12/21 02:43:53;;;;;;;20.90;8.27;;;;;;;;;;5062936;28;20621;-61
2021/12/21 02:46:19;;;;;;;22.07;8.13;;;;;;;;;;5064550;28;20151;-59
2021/12/21 02:48:46;;;;;;;19.10;8.75;;;;;;;;;;5064186;28;20285;-61
2021/12/21 02:51:12;;;;;;;17.15;8.45;;;;;;;;;;5064841;28;20053;-61
2021/12/21 02:53:39;;;;;;;15.05;7.47;;;;;;;;;;5065012;28;20050;-61
2021/12/21 02:56:06;;;;;;;20.20;9.23;;;;;;;;;;5047555;28;20049;-61
2021/12/21 02:58:33;;;;;;;19.08;8.45;;;;;;;;;;5064688;28;20063;-61
2021/12/21 03:00:59;;;;;;;19.65;8.65;;;;;;;;;;5064586;28;20052;-61
2021/12/21 03:03:27;;;;;;;13.82;7.75;;;;;;;;;;5065243;28;20049;-61
2021/12/21 03:05:56;;;;;;;25.00;8.93;;;;;;;;;;5064022;28;20114;-61
2021/12/21 03:08:44;;;;;;;17.98;7.85;;;;;;;;;;5064716;28;20095;-60
2021/12/21 03:11:19;;;;;;;16.38;8.38;;;;;;;;;;5065060;28;20533;-61
2021/12/21 03:14:04;;;;;;;18.92;8.25;;;;;;;;;;5065229;28;20470;-61
2021/12/21 03:16:31;;;;;;;22.63;8.23;;;;;;;;;;5064123;28;20139;-60
2021/12/21 03:18:59;;;;;;;19.88;7.95;;;;;;;;;;5064474;28;20049;-61
2021/12/21 03:21:26;;;;;;;18.00;7.50;;;;;;;;;;5064208;28;20052;-61
2021/12/21 03:23:53;;;;;;;11.88;7.53;;;;;;;;;;5064092;28;20446;-61
2021/12/21 03:26:20;;;;;;;17.00;7.75;;;;;;;;;;5069436;28;20127;-61
2021/12/21 03:28:46;;;;;;;16.10;7.57;;;;;;;;;;5067511;28;20077;-61
2021/12/21 03:31:12;;;;;;;16.65;8.15;;;;;;;;;;5068010;28;20544;-61
2021/12/21 03:33:39;;;;;;;12.77;7.63;;;;;;;;;;5067991;28;20057;-58
2021/12/21 03:36:05;;;;;;;16.73;7.45;;;;;;;;;;5067048;28;20100;-61
2021/12/21 03:38:33;;;;;;;20.30;8.55;;;;;;;;;;5077869;28;20585;-61
2021/12/21 03:41:06;;;;;;;20.65;7.85;;;;;;;;;;5088240;28;20074;-60
2021/12/21 03:43:33;;;;;;;15.63;7.80;;;;;;;;;;5071479;28;20083;-61
2021/12/21 03:46:14;;;;;;;15.40;7.35;;;;;;;;;;5065800;28;20051;-61
2021/12/21 03:48:44;;;;;;;14.40;7.90;;;;;;;;;;5029374;28;20686;-60
2021/12/21 03:51:11;;;;;;;15.93;7.68;;;;;;;;;;5047540;28;20045;-61
2021/12/21 03:53:37;;;;;;;20.83;7.93;;;;;;;;;;5047810;28;20512;-61
2021/12/21 03:58:36;;;;;;;12.75;7.15;;;;;;;;;;5047804;28;20071;-61
2021/12/21 04:01:03;;;;;;;17.52;8.23;;;;;;;;;;5047147;28;20075;-61
2021/12/21 04:03:29;;;;;;;12.60;7.47;;;;;;;;;;5047963;28;20063;-61
2021/12/21 04:05:56;;;;;;;12.48;7.15;;;;;;;;;;5057711;28;20059;-60
2021/12/21 04:08:23;;;;;;;17.65;6.95;;;;;;;;;;5067414;28;20052;-60
2021/12/21 04:10:49;;;;;;;16.35;7.32;;;;;;;;;;5067029;28;20052;-61
2021/12/21 04:13:15;;;;;;;19.13;9.48;;;;;;;;;;5067933;28;20048;-61
2021/12/21 04:15:43;;;;;;;22.40;8.60;;;;;;;;;;5066978;28;20462;-61
2021/12/21 04:18:13;;;;;;;18.33;8.23;;;;;;;;;;5067489;28;20598;-61
2021/12/21 04:20:40;;;;;;;14.77;7.93;;;;;;;;;;5067035;28;20047;-62
2021/12/21 04:23:07;;;;;;;15.02;7.30;;;;;;;;;;5067785;28;20139;-61
2021/12/21 04:25:34;;;;;;;16.80;7.63;;;;;;;;;;5067469;28;20139;-61
2021/12/21 04:28:00;;;;;;;17.65;8.02;;;;;;;;;;5067077;28;20060;-61
2021/12/21 04:30:26;;;;;;;15.50;8.20;;;;;;;;;;5067155;28;20045;-59
2021/12/21 04:32:53;;;;;;;16.63;7.65;;;;;;;;;;5066356;28;20143;-60
2021/12/21 04:35:20;;;;;;;16.63;8.15;;;;;;;;;;5066237;28;20525;-60
2021/12/21 04:37:52;;;;;;;15.02;7.60;;;;;;;;;;5066336;28;20054;-60
2021/12/21 04:40:22;;;;;;;18.17;7.75;;;;;;;;;;5066907;28;20053;-61
2021/12/21 04:42:49;;;;;;;20.83;8.38;;;;;;;;;;5066077;28;20079;-61
2021/12/21 04:45:15;;;;;;;21.48;9.77;;;;;;;;;;5066582;28;20068;-61
2021/12/21 04:47:41;;;;;;;21.20;8.15;;;;;;;;;;5066573;28;20063;-60
2021/12/21 04:50:08;;;;;;;17.25;8.40;;;;;;;;;;5066696;28;20044;-60
2021/12/21 04:52:35;;;;;;;14.48;7.97;;;;;;;;;;5066367;28;20533;-60
2021/12/21 04:55:02;;;;;;;18.95;7.80;;;;;;;;;;5066265;28;20104;-60
2021/12/21 04:57:28;;;;;;;17.08;7.90;;;;;;;;;;5066575;28;20076;-60
2021/12/21 04:59:55;;;;;;;14.38;7.38;;;;;;;;;;5066373;28;20503;-61
2021/12/21 05:02:21;;;;;;;18.00;8.82;;;;;;;;;;5065948;28;20048;-60
2021/12/21 05:04:48;;;;;;;18.92;8.80;;;;;;;;;;5065850;28;20540;-60
2021/12/21 05:07:21;;;;;;;18.48;8.15;;;;;;;;;;5058245;28;20709;-60
2021/12/21 05:09:56;;;;;;;18.48;8.52;;;;;;;;;;5065613;28;20059;-60
2021/12/21 05:12:23;;;;;;;17.23;8.85;;;;;;;;;;5066646;28;20056;-60
2021/12/21 05:14:49;;;;;;;16.73;8.80;;;;;;;;;;5065338;28;20139;-61
2021/12/21 05:17:16;;;;;;;19.80;9.30;;;;;;;;;;5055117;28;20719;-60
2021/12/21 05:19:42;;;;;;;22.85;9.65;;;;;;;;;;5049535;28;20152;-60
2021/12/21 05:22:09;;;;;;;21.70;9.52;;;;;;;;;;5045573;28;20048;-60
2021/12/21 05:24:35;;;;;;;20.27;9.95;;;;;;;;;;5046339;28;20433;-60
2021/12/21 05:27:02;;;;;;;21.17;9.95;;;;;;;;;;5045761;28;20076;-60
2021/12/21 05:29:31;;;;;;;18.48;9.23;;;;;;;;;;5046288;28;20554;-60
2021/12/21 05:32:00;;;;;;;24.75;11.35;;;;;;;;;;5045826;28;20179;-60
2021/12/21 05:34:27;;;;;;;24.58;10.48;;;;;;;;;;5061414;28;20052;-61
2021/12/21 05:36:53;;;;;;;20.35;10.40;;;;;;;;;;5065200;28;20045;-60
2021/12/21 05:39:22;;;;;;;21.67;11.02;;;;;;;;;;5065613;28;20052;-60
2021/12/21 05:41:51;;;;;;;30.88;12.55;;;;;;;;;;5065269;28;20405;-61
2021/12/21 05:44:18;;;;;;;;;;;;;;;;;;5065788;28;20048;-59
2021/12/21 05:46:46;;;;;;;20.40;10.77;;;;;;;;;;5065309;28;19920;-60
2021/12/21 05:49:12;;;;;;;21.77;11.10;;;;;;;;;;5065648;28;20048;-60
2021/12/21 05:51:39;;;;;;;26.60;11.20;;;;;;;;;;5065008;28;20421;-60
2021/12/21 05:54:06;;;;;;;23.67;11.55;;;;;;;;;;5066147;28;20059;-60
2021/12/21 05:56:32;;;;;;;20.92;10.30;;;;;;;;;;5065451;28;20052;-61
2021/12/21 05:59:00;;;;;;;18.85;9.23;;;;;;;;;;5065321;28;20421;-60
2021/12/21 06:01:27;;;;;;;17.13;10.30;;;;;;;;;;5058994;28;20112;-61
2021/12/21 06:03:54;;;;;;;27.40;13.32;;;;;;;;;;5065208;28;20071;-58
2021/12/21 06:06:20;;;;;;;39.22;18.38;;;;;;;;;;5064800;28;20048;-61
2021/12/21 06:08:48;;;;;;;29.50;15.52;;;;;;;;;;5065251;28;20501;-61
2021/12/21 06:11:16;;;;;;;23.70;12.38;;;;;;;;;;5065308;28;20082;-61
2021/12/21 06:14:09;;;;;;;25.15;11.55;;;;;;;;;;5065123;28;20856;-60
2021/12/21 06:25:20;;;;;;;23.42;10.93;;;;;;;;;;5064861;28;20147;-61
2021/12/21 06:27:11;;;;;;;22.52;11.10;;;;;;;;;;5065439;28;20052;-61
2021/12/21 06:29:37;;;;;;;19.45;9.45;;;;;;;;;;5064766;28;20139;-61
2021/12/21 06:32:04;;;;;;;17.23;9.57;;;;;;;;;;5057318;28;20056;-61
2021/12/21 06:34:31;;;;;;;16.95;9.48;;;;;;;;;;5064413;28;20535;-61
2021/12/21 06:36:57;;;;;;;18.45;9.68;;;;;;;;;;5071081;28;20130;-63
2021/12/21 06:39:23;;;;;;;16.48;9.77;;;;;;;;;;5085420;28;20058;-61
2021/12/21 06:41:50;;;;;;;24.58;10.00;;;;;;;;;;5067358;28;20147;-60
2021/12/21 06:44:16;;;;;;;18.98;9.70;;;;;;;;;;5084644;28;20162;-63
2021/12/21 06:51:55;;;;;;;22.40;10.45;;;;;;;;;;5066479;28;20135;-61
2021/12/21 06:54:21;;;;;;;16.20;9.02;;;;;;;;;;5065122;28;20070;-61
2021/12/21 06:56:48;;;;;;;23.17;11.85;;;;;;;;;;5064658;28;20139;-61
2021/12/21 06:59:14;;;;;;;26.08;13.27;;;;;;;;;;5065686;28;20048;-63
2021/12/21 07:01:41;;;;;;;23.00;11.57;;;;;;;;;;5067284;28;20132;-61
2021/12/21 07:04:08;;;;;;;26.60;11.65;;;;;;;;;;5051053;28;20676;-61
2021/12/21 07:06:35;;;;;;;19.38;10.02;;;;;;;;;;5068249;28;20045;-61
2021/12/21 07:09:07;;;;;;;22.75;11.02;;;;;;;;;;5050395;28;20071;-61
2021/12/21 07:19:32;;;;;;;26.90;10.35;;;;;;;;;;5068694;28;20114;-61
2021/12/21 07:21:58;;;;;;;21.27;10.30;;;;;;;;;;5058623;28;20076;-61
2021/12/21 07:24:25;;;;;;;23.38;10.68;;;;;;;;;;5068301;28;20051;-61
2021/12/21 07:26:52;;;;;;;20.40;10.57;;;;;;;;;;5068317;28;20147;-61
2021/12/21 07:29:18;;;;;;;20.02;11.30;;;;;;;;;;5068311;28;20469;-61
2021/12/21 07:31:45;;;;;;;20.50;10.75;;;;;;;;;;5067464;28;20058;-63
2021/12/21 07:34:11;;;;;;;24.45;10.88;;;;;;;;;;5055964;28;20044;-61
2021/12/21 07:36:42;;;;;;;18.73;10.30;;;;;;;;;;5067866;28;20044;-59
2021/12/21 07:39:10;;;;;;;23.58;11.45;;;;;;;;;;5039788;28;20851;-61
2021/12/21 07:41:36;;;;;;;23.48;11.40;;;;;;;;;;5061761;28;20131;-61
2021/12/21 07:44:03;;;;;;;28.52;10.98;;;;;;;;;;5035394;28;20548;-61
2021/12/21 07:46:29;;;;;;;21.25;10.43;;;;;;;;;;5049604;28;20040;-61
2021/12/21 07:48:56;;;;;;;17.92;10.45;;;;;;;;;;5053441;28;20045;-60
2021/12/21 07:51:23;;;;;;;24.90;11.50;;;;;;;;;;5053990;28;20067;-63
2021/12/21 07:53:50;;;;;;;77.18;15.65;;;;;;;;;;5047557;28;20601;-61
2021/12/21 07:56:16;;;;;;;62.25;13.85;;;;;;;;;;5051228;28;20876;-61
2021/12/21 07:58:44;;;;;;;34.05;13.35;;;;;;;;;;5053047;28;20037;-61
2021/12/21 08:01:11;;;;;;;44.53;13.00;;;;;;;;;;5048689;28;20063;-61
2021/12/21 08:03:38;;;;;;;87.15;14.88;;;;;;;;;;5049017;28;20159;-63
2021/12/21 08:06:07;;;;;;;32.90;13.05;;;;;;;;;;5047277;28;20128;-60
2021/12/21 08:08:36;;;;;;;21.52;13.07;;;;;;;;;;5056112;28;20063;-60
2021/12/21 08:13:38;;;;;;;23.77;12.55;;;;;;;;;;5050181;28;20049;-60
2021/12/21 08:16:05;;;;;;;27.58;12.63;;;;;;;;;;5046754;28;20063;-61
2021/12/21 08:18:31;;;;;;;26.42;11.48;;;;;;;;;;5050633;28;20305;-61
2021/12/21 08:20:57;;;;;;;23.48;11.88;;;;;;;;;;5046197;28;20048;-60
2021/12/21 08:23:24;;;;;;;19.42;11.57;;;;;;;;;;5047615;28;20045;-63
2021/12/21 08:25:51;;;;;;;19.70;11.90;;;;;;;;;;5042242;28;20069;-63
2021/12/21 08:28:17;;;;;;;26.40;12.15;;;;;;;;;;5059139;28;20056;-64
2021/12/21 08:30:43;;;;;;;18.52;11.30;;;;;;;;;;5058640;28;20060;-64
2021/12/21 08:33:09;;;;;;;23.20;11.23;;;;;;;;;;5043661;28;20063;-64
2021/12/21 08:35:36;;;;;;;27.10;12.50;;;;;;;;;;5044078;28;20059;-63
2021/12/21 08:38:05;;;;;;;18.15;12.50;;;;;;;;;;5062248;28;20048;-63
2021/12/21 08:40:38;;;;;;;21.02;12.55;;;;;;;;;;5058056;28;20049;-63
2021/12/21 08:43:07;;;;;;;18.40;10.77;;;;;;;;;;5049651;28;20446;-63
2021/12/21 08:45:35;;;;;;;24.48;13.95;;;;;;;;;;5063121;28;20056;-63
2021/12/21 08:48:01;;;;;;;20.47;13.33;;;;;;;;;;5048716;28;20724;-63
2021/12/21 08:50:29;;;;;;;22.10;13.73;;;;;;;;;;5043775;28;20048;-63
2021/12/21 08:52:56;;;;;;;21.83;12.75;;;;;;;;;;5045136;28;20387;-63
2021/12/21 08:55:23;;;;;;;21.73;12.40;;;;;;;;;;5035051;28;20505;-62
2021/12/21 08:57:49;;;;;;;22.85;12.02;;;;;;;;;;5051109;28;20052;-63
2021/12/21 09:00:15;;;;;;;20.35;12.32;;;;;;;;;;5047603;28;20049;-62
2021/12/21 09:02:42;;;;;;;18.63;10.85;;;;;;;;;;5057686;28;20056;-62
2021/12/21 09:05:15;;;;;;;20.52;12.18;;;;;;;;;;5048633;28;20066;-63
2021/12/21 09:07:45;;;;;;;21.38;12.23;;;;;;;;;;5051585;28;20057;-63
2021/12/21 09:10:12;;;;;;;17.88;12.10;;;;;;;;;;5042527;28;20048;-64
2021/12/21 09:12:38;;;;;;;20.50;11.93;;;;;;;;;;5060339;28;20127;-62
2021/12/21 09:15:05;;;;;;;20.80;12.85;;;;;;;;;;5057228;28;20595;-63
2021/12/21 09:17:32;;;;;;;21.05;12.60;;;;;;;;;;5042005;28;20049;-63
2021/12/21 09:19:58;;;;;;;19.05;11.80;;;;;;;;;;5052669;28;20045;-65
2021/12/21 09:22:42;;;;;;;21.45;11.93;;;;;;;;;;5043287;28;20045;-63
2021/12/21 09:25:10;;;;;;;21.13;11.52;;;;;;;;;;5045259;28;20425;-62
2021/12/21 09:27:37;;;;;;;21.38;13.30;;;;;;;;;;5047023;28;20095;-63
2021/12/21 09:30:04;;;;;;;25.67;12.75;;;;;;;;;;5055479;28;20051;-62
2021/12/21 09:32:31;;;;;;;21.92;12.35;;;;;;;;;;5058602;28;20052;-63
2021/12/21 09:34:57;;;;;;;21.98;12.98;;;;;;;;;;5024543;28;21784;-62
2021/12/21 09:37:23;;;;;;;31.33;15.68;;;;;;;;;;5049708;28;20059;-63
2021/12/21 09:39:51;;;;;;;25.80;15.32;;;;;;;;;;5052154;28;20052;-62
2021/12/21 09:42:21;;;;;;;25.60;14.23;;;;;;;;;;5048792;28;20409;-63
2021/12/21 09:44:48;;;;;;;23.95;14.07;;;;;;;;;;5057438;28;20056;-62
2021/12/21 09:47:15;;;;;;;27.70;14.68;;;;;;;;;;5044850;28;20044;-63
2021/12/21 09:49:43;;;;;;;26.25;13.13;;;;;;;;;;5041758;28;20044;-63
2021/12/21 09:52:11;;;;;;;24.30;14.68;;;;;;;;;;5055406;28;20497;-63
2021/12/21 09:54:38;;;;;;;21.90;13.20;;;;;;;;;;5050578;28;20596;-63
2021/12/21 09:57:05;;;;;;;26.15;15.25;;;;;;;;;;5041361;28;20052;-63
2021/12/21 09:59:31;;;;;;;23.65;14.23;;;;;;;;;;5043389;28;20048;-62
2021/12/21 10:01:58;;;;;;;26.55;14.48;;;;;;;;;;5057726;28;20474;-63
2021/12/21 10:04:25;;;;;;;27.33;14.80;;;;;;;;;;5048642;28;20079;-63
2021/12/21 10:06:54;;;;;;;24.88;13.98;;;;;;;;;;5046522;28;20055;-63
2021/12/21 10:09:23;;;;;;;27.33;14.57;;;;;;;;;;5050078;28;20856;-63
2021/12/21 10:12:03;;;;;;;21.45;12.77;;;;;;;;;;5045214;28;20048;-63
2021/12/21 10:14:29;;;;;;;25.98;14.80;;;;;;;;;;5061064;28;20052;-62
2021/12/21 10:16:59;;;;;;;27.38;14.43;;;;;;;;;;5049205;28;20450;-63
2021/12/21 10:19:26;;;;;;;24.50;13.73;;;;;;;;;;5045467;28;20048;-63
2021/12/21 10:21:52;;;;;;;23.70;14.65;;;;;;;;;;5056092;28;20045;-63
2021/12/21 10:24:23;;;;;;;25.42;15.18;;;;;;;;;;5052405;28;20132;-63
2021/12/21 10:26:51;;;;;;;29.20;14.77;;;;;;;;;;5045394;28;20127;-63
2021/12/21 10:29:17;;;;;;;23.65;13.98;;;;;;;;;;5046346;28;20060;-63
2021/12/21 10:31:46;;;;;;;28.40;14.63;;;;;;;;;;5042602;28;20056;-63
2021/12/21 10:34:14;;;;;;;28.90;15.30;;;;;;;;;;5046195;28;20057;-63
2021/12/21 10:36:45;;;;;;;21.70;13.27;;;;;;;;;;5048496;28;20047;-63
2021/12/21 10:39:19;;;;;;;27.52;14.63;;;;;;;;;;5042739;28;20127;-63
2021/12/21 10:41:45;;;;;;;24.20;14.13;;;;;;;;;;5045909;28;20060;-62
2021/12/21 10:44:13;;;;;;;25.88;15.05;;;;;;;;;;5051315;28;20045;-63
2021/12/21 10:46:41;;;;;;;24.90;13.90;;;;;;;;;;5052348;28;20049;-63
2021/12/21 10:49:28;;;;;;;27.37;14.90;;;;;;;;;;5041741;28;20134;-62
2021/12/21 10:52:05;;;;;;;28.00;14.57;;;;;;;;;;5042078;28;20052;-63
2021/12/21 10:54:33;;;;;;;30.10;16.30;;;;;;;;;;5047560;28;20036;-63
2021/12/21 10:57:02;;;;;;;29.27;16.60;;;;;;;;;;5045775;28;20118;-63
2021/12/21 10:59:33;;;;;;;29.95;16.55;;;;;;;;;;5041369;28;20168;-61
2021/12/21 11:02:05;;;;;;;31.20;16.50;;;;;;;;;;5046562;28;20036;-63
2021/12/21 11:04:36;;;;;;;29.63;16.20;;;;;;;;;;5050136;28;20702;-61
2021/12/21 11:07:18;;;;;;;29.38;17.17;;;;;;;;;;5048978;28;20052;-63
2021/12/21 11:09:55;;;;;;;23.13;14.32;;;;;;;;;;5050787;28;20057;-63
2021/12/21 11:12:23;;;;;;;29.58;17.33;;;;;;;;;;5042200;28;20136;-63
2021/12/21 11:14:50;;;;;;;27.50;16.98;;;;;;;;;;5052795;28;20052;-62
2021/12/21 11:17:16;;;;;;;25.85;16.48;;;;;;;;;;5045724;28;20037;-63
2021/12/21 11:19:43;;;;;;;30.52;16.80;;;;;;;;;;5041564;28;20091;-63
2021/12/21 11:22:09;;;;;;;26.33;17.40;;;;;;;;;;5044885;28;20055;-63
2021/12/21 11:24:37;;;;;;;33.95;20.48;;;;;;;;;;5051090;28;20059;-63
2021/12/21 11:27:04;;;;;;;34.90;18.25;;;;;;;;;;5036199;28;20064;-63
2021/12/21 11:29:31;;;;;;;36.60;20.10;;;;;;;;;;5045691;28;20063;-63
2021/12/21 11:32:01;;;;;;;34.58;19.20;;;;;;;;;;5045895;28;20757;-63
2021/12/21 11:34:32;;;;;;;34.83;19.20;;;;;;;;;;5044788;28;20059;-63
2021/12/21 11:39:43;;;;;;;32.67;18.83;;;;;;;;;;5054166;28;20048;-63
2021/12/21 11:42:20;;;;;;;33.95;19.35;;;;;;;;;;5044756;28;20750;-63
2021/12/21 11:45:03;;;;;;;36.17;19.83;;;;;;;;;;5051649;28;20048;-63
2021/12/21 11:47:56;;;;;;;33.33;18.27;;;;;;;;;;5054131;28;20061;-63
2021/12/21 11:50:22;;;;;;;37.15;19.75;;;;;;;;;;5049575;28;20053;-63
2021/12/21 11:52:50;;;;;;;35.95;20.83;;;;;;;;;;5043152;28;20056;-63
2021/12/21 11:55:18;;;;;;;34.35;20.23;;;;;;;;;;5044279;28;20524;-63
2021/12/21 11:57:46;;;;;;;34.23;19.53;;;;;;;;;;5046050;28;20607;-63
2021/12/21 12:00:29;;;;;;;34.30;19.33;;;;;;;;;;5051397;28;20049;-63
2021/12/21 12:03:06;;;;;;;33.42;19.77;;;;;;;;;;5043204;28;20049;-63
2021/12/21 12:05:34;;;;;;;33.78;18.50;;;;;;;;;;5043525;28;20044;-63
2021/12/21 12:08:00;;;;;;;35.25;19.13;;;;;;;;;;5040521;28;20441;-63
2021/12/21 12:10:27;;;;;;;34.95;20.83;;;;;;;;;;5047106;28;20707;-63
2021/12/21 12:12:53;;;;;;;32.40;20.55;;;;;;;;;;5043849;28;20056;-63
2021/12/21 12:15:19;;;;;;;38.38;21.05;;;;;;;;;;5046155;28;20044;-63
2021/12/21 12:17:50;;;;;;;36.28;20.85;;;;;;;;;;5054364;28;20052;-63
2021/12/21 12:20:25;;;;;;;33.45;20.02;;;;;;;;;;5043674;28;20191;-63
2021/12/21 12:23:02;;;;;;;30.98;19.33;;;;;;;;;;5043453;28;20055;-64
2021/12/21 12:25:28;;;;;;;30.75;17.75;;;;;;;;;;5061228;28;20049;-64
2021/12/21 12:27:56;;;;;;;29.05;15.77;;;;;;;;;;5050445;28;20040;-63
2021/12/21 12:30:24;;;;;;;39.15;20.55;;;;;;;;;;5050071;28;20060;-62
2021/12/21 12:32:55;;;;;;;32.22;16.88;;;;;;;;;;5021965;28;20064;-64
2021/12/21 12:35:23;;;;;;;34.97;19.52;;;;;;;;;;5040982;28;20134;-63
2021/12/21 12:37:50;;;;;;;36.40;19.33;;;;;;;;;;5041016;28;20055;-64
2021/12/21 12:40:18;;;;;;;32.90;19.58;;;;;;;;;;5041990;28;20040;-64
2021/12/21 12:43:14;;;;;;;31.17;18.48;;;;;;;;;;5049694;28;20048;-63
2021/12/21 12:45:45;;;;;;;28.60;17.48;;;;;;;;;;4999233;28;20049;-64
2021/12/21 12:48:18;;;;;;;32.05;18.77;;;;;;;;;;5048937;28;20052;-63
2021/12/21 12:50:46;;;;;;;30.42;17.40;;;;;;;;;;5046070;28;20049;-64
2021/12/21 12:53:13;;;;;;;27.55;15.52;;;;;;;;;;5050811;28;20491;-63
2021/12/21 12:55:41;;;;;;;31.45;16.77;;;;;;;;;;5040983;28;20146;-63
2021/12/21 12:58:29;;;;;;;31.58;16.02;;;;;;;;;;5048660;28;20047;-63
2021/12/21 13:00:55;;;;;;;24.02;13.50;;;;;;;;;;5048460;28;20591;-64
2021/12/21 13:03:30;;;;;;;27.30;17.05;;;;;;;;;;5049555;28;20843;-64
2021/12/21 13:05:57;;;;;;;29.65;16.85;;;;;;;;;;5040493;28;20487;-64
2021/12/21 13:08:26;;;;;;;30.58;18.00;;;;;;;;;;5041329;28;20049;-63
2021/12/21 13:10:52;;;;;;;;;;;;;;;;;;5056460;28;20044;-64
2021/12/21 13:13:19;;;;;;;32.15;17.70;;;;;;;;;;5050376;28;19936;-63
2021/12/21 13:15:47;;;;;;;31.13;17.35;;;;;;;;;;5040439;28;20083;-63
2021/12/21 13:18:17;;;;;;;29.13;16.33;;;;;;;;;;5040449;28;20052;-63
2021/12/21 13:20:44;;;;;;;30.65;17.83;;;;;;;;;;5040114;28;20124;-64
2021/12/21 13:23:15;;;;;;;30.98;15.45;;;;;;;;;;5040946;28;20735;-64
2021/12/21 13:26:00;;;;;;;32.90;16.88;;;;;;;;;;5040036;28;20745;-63
2021/12/21 13:28:28;;;;;;;25.23;14.50;;;;;;;;;;5052446;28;20405;-63
2021/12/21 13:30:56;;;;;;;26.65;16.13;;;;;;;;;;5048670;28;20520;-64
2021/12/21 13:33:23;;;;;;;;;;;;;;;;;;5059711;28;20055;-63
2021/12/21 13:35:51;;;;;;;24.88;13.48;;;;;;;;;;5047226;28;19932;-63
2021/12/21 13:38:19;;;;;;;26.40;14.55;;;;;;;;;;5042890;28;20049;-64
2021/12/21 13:40:57;;;;;;;26.63;15.48;;;;;;;;;;5044111;28;20041;-64
2021/12/21 13:43:23;;;;;;;23.00;13.23;;;;;;;;;;5046294;28;20049;-64
2021/12/21 13:45:56;;;;;;;24.27;16.13;;;;;;;;;;5046306;28;20045;-64
2021/12/21 13:48:22;;;;;;;25.52;14.85;;;;;;;;;;5038117;28;20052;-64
2021/12/21 13:50:49;;;;;;;26.98;14.82;;;;;;;;;;5042860;28;20480;-64
2021/12/21 13:53:18;;;;;;;31.55;16.30;;;;;;;;;;5052358;28;20429;-63
2021/12/21 13:55:48;;;;;;;27.92;15.75;;;;;;;;;;5045542;28;20063;-64
2021/12/21 13:58:15;;;;;;;27.35;15.45;;;;;;;;;;5039187;28;20049;-64
2021/12/21 14:00:42;;;;;;;25.63;15.57;;;;;;;;;;5038699;28;20053;-63
2021/12/21 14:03:20;;;;;;;29.23;14.88;;;;;;;;;;5045698;28;20484;-64
2021/12/21 14:05:55;;;;;;;23.30;13.00;;;;;;;;;;5059092;28;20134;-64
2021/12/21 14:08:21;;;;;;;30.55;16.23;;;;;;;;;;5043054;28;20060;-63
2021/12/21 14:10:49;;;;;;;26.92;15.15;;;;;;;;;;5038186;28;20076;-63
2021/12/21 14:13:16;;;;;;;26.70;15.80;;;;;;;;;;5040017;28;20053;-63
2021/12/21 14:15:44;;;;;;;25.92;15.43;;;;;;;;;;5043636;28;20426;-64
2021/12/21 14:18:14;;;;;;;25.92;15.13;;;;;;;;;;5048603;28;20067;-64
2021/12/21 14:20:41;;;;;;;30.83;16.40;;;;;;;;;;5042480;28;20045;-61
2021/12/21 14:23:07;;;;;;;27.30;15.77;;;;;;;;;;5051847;28;20040;-64
2021/12/21 14:25:34;;;;;;;26.30;15.57;;;;;;;;;;5047600;28;20044;-62
2021/12/21 14:28:07;;;;;;;26.45;15.43;;;;;;;;;;5039957;28;20569;-62
2021/12/21 14:30:34;;;;;;;28.58;15.88;;;;;;;;;;5041307;28;20041;-62
2021/12/21 14:33:19;;;;;;;27.45;14.93;;;;;;;;;;5046375;28;20052;-62
2021/12/21 14:35:46;;;;;;;25.60;15.15;;;;;;;;;;5049058;28;20064;-62
2021/12/21 14:38:13;;;;;;;28.73;16.40;;;;;;;;;;5045993;28;20068;-62
2021/12/21 14:40:42;;;;;;;26.90;16.15;;;;;;;;;;5030275;28;20063;-62
2021/12/21 14:43:38;;;;;;;24.13;13.32;;;;;;;;;;5031293;28;20053;-63
2021/12/21 14:46:04;;;;;;;36.22;17.02;;;;;;;;;;5025397;28;20080;-62
2021/12/21 14:48:31;;;;;;;29.17;15.48;;;;;;;;;;5039537;28;20053;-62
2021/12/21 14:51:04;;;;;;;25.92;15.63;;;;;;;;;;5045387;28;20052;-62
2021/12/21 14:53:42;;;;;;;26.02;15.52;;;;;;;;;;5039047;28;20056;-62
2021/12/21 14:56:11;;;;;;;32.70;17.40;;;;;;;;;;5039270;28;20045;-62
2021/12/21 14:58:38;;;;;;;27.80;16.40;;;;;;;;;;5051893;28;20063;-62
2021/12/21 15:01:05;;;;;;;24.55;15.80;;;;;;;;;;5024778;28;20500;-62
2021/12/21 15:03:39;;;;;;;31.27;16.45;;;;;;;;;;5039219;28;20048;-62
2021/12/21 15:06:06;;;;;;;26.23;16.55;;;;;;;;;;5039569;28;20842;-62
2021/12/21 15:08:33;;;;;;;29.40;16.38;;;;;;;;;;5038798;28;20045;-63
2021/12/21 15:11:00;;;;;;;28.67;15.73;;;;;;;;;;5038790;28;20060;-62
2021/12/21 15:13:26;;;;;;;30.33;17.35;;;;;;;;;;5040386;28;20048;-62
2021/12/21 15:15:53;;;;;;;31.23;17.52;;;;;;;;;;5052088;28;20060;-63
2021/12/21 15:18:19;;;;;;;27.60;15.43;;;;;;;;;;5039207;28;20053;-63
2021/12/21 15:20:45;;;;;;;31.30;17.42;;;;;;;;;;5046315;28;20067;-63
2021/12/21 15:23:12;;;;;;;31.42;17.83;;;;;;;;;;5046330;28;20045;-63